Terminal Aerodrome Forecast
Issued by NWS

Home | Current Version | Previous Version | Graphics & Text | Print | Product List | Glossary On
Versions: 1 2 3 4 5 6 7 8 9 10 11 12
000
FTUS43 KGRB 202335
TAFATW
TAF
KATW 202335Z 2100/2124 VRB03KT P6SM SCT110 BKN200
     FM211200 31008G15KT P6SM SCT040
     FM211500 35013G20KT P6SM BKN045
     FM212300 36009KT P6SM BKN045=

USA.gov is the U.S. government's official web portal to all federal, state and local government web resources and services.